Time;durP1;ratioP1;P1;durP2;ratioP2;P2;SDS_P1;SDS_P2;PMS_P1;PMS_P2;Temp;Humidity;BMP_temperature;BMP_pressure;BME280_temperature;BME280_humidity;BME280_pressure;Samples;Min_cycle;Max_cycle;Signal;HPM_P1;HPM_P2
2021/06/03 00:00:37;;;;;;;0.23;0.23;;;;;;;15.76;51.00;99159.34;5134333;27;39010;-80
2021/06/03 00:03:06;;;;;;;0.27;0.27;;;;;;;15.66;51.02;99144.16;5140832;27;42349;-79
2021/06/03 00:05:39;;;;;;;0.40;0.40;;;;;;;15.67;51.39;99137.84;5133981;27;42206;-80
2021/06/03 00:08:07;;;;;;;0.10;0.10;;;;;;;15.66;51.80;99152.19;5133023;27;41380;-79
2021/06/03 00:10:37;;;;;;;0.10;0.10;;;;;;;15.65;54.15;99145.13;5134138;27;39942;-79
2021/06/03 00:13:06;;;;;;;0.40;0.40;;;;;;;15.53;53.60;99133.56;5133719;27;41366;-79
2021/06/03 00:15:33;;;;;;;0.10;0.10;;;;;;;15.66;52.80;99154.84;5134325;27;43390;-79
2021/06/03 00:18:02;;;;;;;0.20;0.20;;;;;;;15.65;52.59;99155.81;5138270;27;42452;-80
2021/06/03 00:20:32;;;;;;;0.10;0.10;;;;;;;15.56;52.27;99146.72;5150981;27;39697;-79
2021/06/03 00:23:00;;;;;;;0.47;0.47;;;;;;;15.61;52.35;99157.00;5151286;27;41804;-79
2021/06/03 00:25:27;;;;;;;0.40;0.40;;;;;;;15.46;52.17;99140.34;5139897;27;42096;-80
2021/06/03 00:27:55;;;;;;;0.30;0.30;;;;;;;15.54;52.15;99155.78;5133049;27;41561;-79
2021/06/03 00:30:24;;;;;;;0.13;0.13;;;;;;;15.41;52.29;99143.38;5116976;27;40955;-79
2021/06/03 00:32:52;;;;;;;0.20;0.20;;;;;;;15.29;52.54;99133.66;5119513;27;40840;-79
2021/06/03 00:35:20;;;;;;;0.20;0.20;;;;;;;15.30;53.05;99135.38;5133327;27;42153;-80
2021/06/03 00:37:49;;;;;;;0.10;0.10;;;;;;;15.34;53.12;99147.47;5134450;27;42100;-80
2021/06/03 00:40:17;;;;;;;0.20;0.20;;;;;;;15.29;52.90;99155.00;5142919;27;40008;-80
2021/06/03 00:42:45;;;;;;;0.20;0.20;;;;;;;15.12;52.95;99128.75;5116880;27;41698;-80
2021/06/03 00:45:15;;;;;;;0.30;0.30;;;;;;;15.14;53.10;99145.50;5132690;27;42609;-80
2021/06/03 00:47:44;;;;;;;0.33;0.30;;;;;;;15.17;53.21;99150.63;5132930;27;45367;-80
2021/06/03 00:50:14;;;;;;;0.43;0.43;;;;;;;15.03;53.31;99153.47;5149694;27;39673;-80
2021/06/03 00:52:46;;;;;;;0.53;0.53;;;;;;;14.98;53.46;99156.47;5133184;27;40675;-80
2021/06/03 00:55:14;;;;;;;0.20;0.20;;;;;;;14.99;53.57;99165.34;5145507;27;42753;-79
2021/06/03 00:57:42;;;;;;;2.10;1.63;;;;;;;14.97;53.54;99170.78;5116643;27;41234;-80
2021/06/03 01:00:12;;;;;;;0.30;0.30;;;;;;;14.94;53.61;99171.03;5115873;27;38879;-80
2021/06/03 01:02:39;;;;;;;0.10;0.10;;;;;;;14.92;53.66;99170.31;5133348;27;41687;-79
2021/06/03 01:05:11;;;;;;;0.20;0.20;;;;;;;14.92;53.57;99167.63;5128009;27;42677;-80
2021/06/03 01:07:38;;;;;;;0.73;0.73;;;;;;;14.91;53.44;99170.41;5133185;27;42230;-81
2021/06/03 01:10:12;;;;;;;0.20;0.20;;;;;;;14.90;53.38;99174.03;5148916;27;40453;-80
2021/06/03 01:12:46;;;;;;;0.20;0.20;;;;;;;14.80;54.36;99154.38;5133947;27;40699;-80
2021/06/03 01:15:16;;;;;;;0.13;0.13;;;;;;;14.80;54.11;99159.69;5115982;27;41923;-80
2021/06/03 01:17:45;;;;;;;0.17;0.17;;;;;;;14.87;54.40;99168.94;5150981;27;41526;-80
2021/06/03 01:20:16;;;;;;;0.60;0.60;;;;;;;14.82;54.07;99163.97;5142352;27;39893;-80
2021/06/03 01:22:54;;;;;;;0.10;0.10;;;;;;;14.86;54.06;99177.91;5134043;27;41695;-80
2021/06/03 01:25:24;;;;;;;0.20;0.20;;;;;;;14.84;54.39;99180.66;5132507;27;41888;-80
2021/06/03 01:27:53;;;;;;;0.33;0.33;;;;;;;14.84;54.70;99182.47;5150684;27;42271;-80
2021/06/03 01:30:26;;;;;;;0.20;0.20;;;;;;;14.83;54.79;99187.00;5133148;27;38991;-80
2021/06/03 01:32:59;;;;;;;0.20;0.20;;;;;;;14.85;55.57;99170.84;5141642;27;41397;-80
2021/06/03 01:35:30;;;;;;;0.20;0.20;;;;;;;14.86;55.48;99177.91;5131587;27;42720;-80
2021/06/03 01:37:58;;;;;;;0.10;0.10;;;;;;;14.87;55.11;99174.25;5132089;27;42466;-81
2021/06/03 01:40:29;;;;;;;0.23;0.23;;;;;;;14.85;54.94;99174.38;5118751;27;39034;-80
2021/06/03 01:42:57;;;;;;;0.20;0.20;;;;;;;14.89;54.85;99185.66;5119132;27;40657;-80
2021/06/03 01:45:24;;;;;;;0.23;0.23;;;;;;;14.82;54.68;99157.78;5135544;27;42935;-80
2021/06/03 01:47:55;;;;;;;0.10;0.10;;;;;;;14.79;54.71;99148.19;5135346;27;42315;-80
2021/06/03 01:50:24;;;;;;;0.10;0.10;;;;;;;14.84;54.64;99169.16;5135635;27;38888;-79
2021/06/03 01:52:56;;;;;;;0.33;0.33;;;;;;;14.87;54.77;99184.94;5119387;27;42085;-80
2021/06/03 01:55:24;;;;;;;0.20;0.20;;;;;;;14.69;55.08;99165.84;5130152;27;41793;-80
2021/06/03 01:57:53;;;;;;;0.30;0.30;;;;;;;14.74;55.34;99188.50;5129219;27;41836;-80
2021/06/03 02:00:26;;;;;;;0.20;0.20;;;;;;;14.71;55.40;99190.56;5118964;27;39433;-80
2021/06/03 02:02:56;;;;;;;0.60;0.60;;;;;;;14.62;55.35;99192.09;5135142;27;42250;-79
2021/06/03 02:05:28;;;;;;;0.43;0.40;;;;;;;14.54;55.27;99191.81;5135553;27;43180;-80
2021/06/03 02:07:58;;;;;;;0.20;0.20;;;;;;;14.45;55.49;99195.16;5134956;27;43243;-81
2021/06/03 02:10:26;;;;;;;0.20;0.20;;;;;;;14.50;55.48;99208.97;5127343;27;38923;-80
2021/06/03 02:13:02;;;;;;;0.20;0.20;;;;;;;14.41;55.89;99204.31;5152975;27;40430;-80
2021/06/03 02:15:33;;;;;;;0.10;0.10;;;;;;;14.40;56.26;99213.28;5135934;27;42686;-80
2021/06/03 02:18:05;;;;;;;0.27;0.27;;;;;;;14.35;55.98;99218.03;5152465;27;42266;-80
2021/06/03 02:20:34;;;;;;;1.03;1.03;;;;;;;14.30;56.25;99220.19;5138126;27;39050;-80
2021/06/03 02:23:03;;;;;;;0.13;0.13;;;;;;;14.27;56.05;99217.75;5135427;27;41693;-79
2021/06/03 02:25:31;;;;;;;0.57;0.57;;;;;;;14.24;56.31;99220.63;5144181;27;43196;-79
2021/06/03 02:28:04;;;;;;;0.30;0.30;;;;;;;14.22;56.14;99222.53;5139439;27;43140;-80
2021/06/03 02:30:33;;;;;;;0.30;0.30;;;;;;;14.20;56.01;99224.50;5152403;27;40355;-79
2021/06/03 02:33:02;;;;;;;0.40;0.40;;;;;;;14.11;56.10;99212.66;5139642;27;40672;-80
2021/06/03 02:35:32;;;;;;;0.37;0.37;;;;;;;14.14;55.97;99227.59;5118523;27;41940;-80
2021/06/03 02:37:59;;;;;;;0.30;0.30;;;;;;;14.13;56.29;99225.88;5118690;27;41274;-80
2021/06/03 02:40:30;;;;;;;0.10;0.10;;;;;;;14.09;56.35;99229.75;5118429;27;38963;-80
2021/06/03 02:42:59;;;;;;;0.10;0.10;;;;;;;14.05;56.77;99233.56;5134772;27;42121;-80
2021/06/03 02:45:31;;;;;;;0.30;0.30;;;;;;;13.96;57.20;99209.31;5130290;27;42560;-79
2021/06/03 02:48:01;;;;;;;0.10;0.10;;;;;;;13.87;57.13;99209.94;5135442;27;41278;-80
2021/06/03 02:50:36;;;;;;;0.17;0.17;;;;;;;13.84;57.16;99220.81;5119382;27;39133;-80
2021/06/03 02:53:04;;;;;;;0.50;0.50;;;;;;;13.73;57.45;99211.84;5118302;27;40719;-80
2021/06/03 02:55:35;;;;;;;0.40;0.40;;;;;;;13.74;57.39;99225.06;5143253;27;43080;-80
2021/06/03 02:58:09;;;;;;;0.63;0.60;;;;;;;13.69;57.43;99226.34;5129264;27;41106;-80
2021/06/03 03:00:44;;;;;;;0.30;0.30;;;;;;;13.69;57.76;99221.03;5118805;27;38972;-80
2021/06/03 03:03:13;;;;;;;0.17;0.17;;;;;;;13.60;57.99;99203.84;5134455;27;41912;-79
2021/06/03 03:05:43;;;;;;;0.20;0.20;;;;;;;13.57;58.73;99201.44;5134482;27;42194;-80
2021/06/03 03:08:14;;;;;;;0.40;0.40;;;;;;;13.68;59.68;99211.34;5152984;27;41851;-80
2021/06/03 03:10:47;;;;;;;0.80;0.80;;;;;;;13.65;59.42;99207.91;5151570;27;39842;-80
2021/06/03 03:13:15;;;;;;;0.20;0.20;;;;;;;13.62;58.90;99212.59;5151124;27;41600;-80
2021/06/03 03:15:46;;;;;;;0.20;0.20;;;;;;;13.65;58.77;99226.53;5118092;27;41893;-80
2021/06/03 03:18:14;;;;;;;0.10;0.10;;;;;;;13.64;58.43;99231.97;5134322;27;42163;-80
2021/06/03 03:20:43;;;;;;;0.10;0.10;;;;;;;13.57;58.16;99231.56;5118378;27;38979;-80
2021/06/03 03:23:12;;;;;;;0.10;0.10;;;;;;;13.60;58.38;99235.78;5141363;27;42415;-80
2021/06/03 03:25:41;;;;;;;0.20;0.20;;;;;;;13.49;58.36;99225.88;5135198;27;41987;-80
2021/06/03 03:28:10;;;;;;;0.77;0.77;;;;;;;13.50;58.46;99219.63;5152015;27;41545;-80
2021/06/03 03:30:41;;;;;;;0.47;0.47;;;;;;;13.61;58.34;99241.00;5153028;27;40654;-80
2021/06/03 03:33:16;;;;;;;0.27;0.27;;;;;;;13.61;58.40;99230.38;5129495;27;40715;-80
2021/06/03 03:35:46;;;;;;;0.80;0.80;;;;;;;13.64;58.36;99224.84;5117893;27;42687;-80
2021/06/03 03:38:14;;;;;;;0.40;0.40;;;;;;;13.82;57.99;99253.81;5150825;27;42886;-80
2021/06/03 03:40:41;;;;;;;0.23;0.23;;;;;;;13.87;57.97;99247.19;5135126;27;40080;-80
2021/06/03 03:43:09;;;;;;;0.40;0.40;;;;;;;13.94;57.67;99259.16;5119906;27;40838;-80
2021/06/03 03:45:36;;;;;;;0.20;0.20;;;;;;;13.97;57.45;99248.25;5133189;27;42681;-79
2021/06/03 03:48:04;;;;;;;0.20;0.20;;;;;;;14.01;57.53;99238.25;5135045;27;42208;-80
2021/06/03 03:50:34;;;;;;;0.20;0.20;;;;;;;14.20;57.72;99253.78;5134160;27;38892;-80
2021/06/03 03:53:04;;;;;;;0.20;0.20;;;;;;;14.33;57.25;99255.47;5135052;27;40834;-80
2021/06/03 03:55:31;;;;;;;0.30;0.30;;;;;;;14.44;57.14;99257.41;5151161;27;41669;-81
2021/06/03 03:57:59;;;;;;;0.70;0.70;;;;;;;14.56;57.14;99251.19;5122434;27;41501;-80
2021/06/03 04:00:28;;;;;;;0.20;0.20;;;;;;;14.64;57.21;99253.28;5132783;27;39669;-80
2021/06/03 04:03:05;;;;;;;0.27;0.27;;;;;;;14.70;57.36;99247.53;5132467;27;41625;-80
2021/06/03 04:05:35;;;;;;;0.30;0.30;;;;;;;14.67;57.18;99240.59;5117307;27;41487;-80
2021/06/03 04:08:09;;;;;;;0.40;0.40;;;;;;;14.81;57.43;99244.06;5133410;27;42853;-79
2021/06/03 04:10:38;;;;;;;0.30;0.30;;;;;;;15.02;58.28;99256.66;5134078;27;39560;-80
2021/06/03 04:13:05;;;;;;;0.63;0.40;;;;;;;15.05;58.02;99247.59;5132632;27;42490;-80
2021/06/03 04:15:39;;;;;;;0.77;0.77;;;;;;;15.27;58.02;99269.00;5117385;27;42833;-80
2021/06/03 04:18:07;;;;;;;0.20;0.20;;;;;;;15.39;58.25;99268.09;5133601;27;42346;-80
2021/06/03 04:20:37;;;;;;;0.73;0.30;;;;;;;15.51;58.22;99270.78;5116709;27;40011;-80
2021/06/03 04:23:07;;;;;;;0.37;0.37;;;;;;;15.55;57.96;99267.81;5136019;27;42418;-79
2021/06/03 04:25:37;;;;;;;0.10;0.10;;;;;;;15.63;57.81;99270.75;5116776;27;42968;-80
2021/06/03 04:28:05;;;;;;;0.40;0.40;;;;;;;15.69;57.32;99280.09;5131356;27;42792;-79
2021/06/03 04:30:33;;;;;;;0.30;0.30;;;;;;;15.70;57.23;99281.81;5151655;27;39626;-80
2021/06/03 04:33:01;;;;;;;0.47;0.47;;;;;;;15.74;57.12;99278.78;5132610;27;41817;-79
2021/06/03 04:35:28;;;;;;;0.30;0.30;;;;;;;15.69;57.25;99267.63;5150980;27;42680;-80
2021/06/03 04:37:57;;;;;;;0.40;0.40;;;;;;;15.86;57.64;99274.31;5135259;27;42946;-79
2021/06/03 04:40:25;;;;;;;0.60;0.37;;;;;;;15.94;57.24;99279.06;5150422;27;40580;-80
2021/06/03 04:42:53;;;;;;;0.10;0.10;;;;;;;16.05;56.89;99281.75;5139233;27;42488;-80
2021/06/03 04:45:22;;;;;;;0.30;0.30;;;;;;;16.19;57.31;99291.38;5131769;27;41761;-80
2021/06/03 04:47:49;;;;;;;0.87;0.87;;;;;;;16.13;57.09;99269.47;5151470;27;42219;-80
2021/06/03 04:50:19;;;;;;;0.23;0.23;;;;;;;16.35;56.96;99286.47;5137447;27;39042;-80
2021/06/03 04:52:47;;;;;;;0.20;0.20;;;;;;;16.36;56.75;99280.16;5115869;27;41734;-80
2021/06/03 04:55:22;;;;;;;0.17;0.17;;;;;;;16.53;56.63;99299.25;5133186;27;43215;-80
2021/06/03 04:57:50;;;;;;;0.50;0.50;;;;;;;16.52;56.50;99278.84;5116795;27;42186;-80
2021/06/03 05:00:19;;;;;;;0.33;0.33;;;;;;;16.64;56.32;99287.72;5131987;27;38839;-79
2021/06/03 05:02:47;;;;;;;0.60;0.60;;;;;;;16.73;56.24;99300.34;5150257;27;41739;-80
2021/06/03 05:05:15;;;;;;;0.30;0.30;;;;;;;16.79;56.42;99302.53;5149990;27;42476;-80
2021/06/03 05:07:42;;;;;;;0.10;0.10;;;;;;;16.82;56.09;99294.25;5132346;27;42922;-80
2021/06/03 05:10:11;;;;;;;0.60;0.60;;;;;;;16.85;55.95;99283.31;5131894;27;41279;-81
2021/06/03 05:12:40;;;;;;;0.60;0.60;;;;;;;17.00;55.83;99301.75;5131606;27;41746;-80
2021/06/03 05:15:08;;;;;;;0.77;0.60;;;;;;;17.05;56.15;99304.94;5148641;27;42480;-80
2021/06/03 05:17:36;;;;;;;0.30;0.30;;;;;;;17.11;55.74;99313.28;5150929;27;42987;-80
2021/06/03 05:20:05;;;;;;;0.53;0.53;;;;;;;17.12;55.99;99314.13;5129002;27;39748;-80
2021/06/03 05:22:33;;;;;;;0.50;0.50;;;;;;;17.14;55.82;99317.53;5133576;27;41376;-80
2021/06/03 05:25:00;;;;;;;0.30;0.30;;;;;;;17.13;56.09;99318.50;5133071;27;41646;-80
2021/06/03 05:27:27;;;;;;;0.20;0.20;;;;;;;17.13;55.59;99307.81;5133327;27;42273;-79
2021/06/03 05:29:56;;;;;;;0.40;0.40;;;;;;;17.27;55.55;99315.56;5145754;27;41031;-80
2021/06/03 05:32:23;;;;;;;0.30;0.30;;;;;;;17.35;55.46;99321.13;5149159;27;42442;-79
2021/06/03 05:34:50;;;;;;;0.30;0.30;;;;;;;17.45;55.51;99307.81;5132489;27;41820;-80
2021/06/03 05:37:18;;;;;;;0.53;0.53;;;;;;;17.66;55.16;99327.50;5132520;27;41285;-80
2021/06/03 05:39:45;;;;;;;0.50;0.50;;;;;;;17.81;54.84;99336.88;5132997;27;38987;-80
2021/06/03 05:42:12;;;;;;;0.30;0.30;;;;;;;17.88;54.73;99324.69;5115713;27;41729;-79
2021/06/03 05:44:39;;;;;;;0.80;0.80;;;;;;;18.08;54.70;99344.41;5139723;27;43278;-79
2021/06/03 05:47:08;;;;;;;0.37;0.37;;;;;;;18.13;54.54;99331.47;5131066;27;42677;-80
2021/06/03 05:49:35;;;;;;;2.83;0.93;;;;;;;18.35;54.39;99351.06;5148731;27;40615;-80
2021/06/03 05:52:03;;;;;;;0.30;0.30;;;;;;;18.48;53.95;99344.50;5134921;27;41553;-80
2021/06/03 05:54:31;;;;;;;0.40;0.40;;;;;;;18.67;53.89;99356.34;5149317;27;43501;-80
2021/06/03 05:57:00;;;;;;;0.57;0.57;;;;;;;18.70;53.69;99361.44;5114770;27;41114;-81
2021/06/03 05:59:27;;;;;;;0.40;0.40;;;;;;;18.79;53.01;99358.78;5135046;27;40671;-80
2021/06/03 06:01:59;;;;;;;0.37;0.37;;;;;;;19.04;52.77;99370.88;5148690;27;42231;-81
2021/06/03 06:07:25;;;;;;;0.60;0.60;;;;;;;19.32;52.36;99369.25;5033521;28;41325;-80
2021/06/03 06:09:52;;;;;;;0.20;0.20;;;;;;;19.48;52.38;99374.94;5119747;27;39725;-80
2021/06/03 06:12:19;;;;;;;0.47;0.47;;;;;;;19.57;51.97;99363.38;5149571;27;41681;-80
2021/06/03 06:14:46;;;;;;;0.60;0.60;;;;;;;19.88;51.25;99374.00;5150209;27;43500;-80
2021/06/03 06:17:13;;;;;;;0.30;0.30;;;;;;;20.23;50.84;99379.63;5114773;27;40987;-80
2021/06/03 06:19:42;;;;;;;0.40;0.40;;;;;;;20.78;49.55;99382.44;5131938;27;39904;-80
2021/06/03 06:22:10;;;;;;;0.43;0.43;;;;;;;21.27;48.41;99393.88;5149156;27;41572;-80
2021/06/03 06:24:38;;;;;;;0.40;0.40;;;;;;;21.49;48.05;99398.88;5149572;27;42259;-80
2021/06/03 06:27:06;;;;;;;0.47;0.47;;;;;;;21.51;47.39;99380.69;5151683;27;40541;-81
2021/06/03 06:29:33;;;;;;;0.53;0.53;;;;;;;21.70;46.43;99396.72;5153585;27;38827;-80
2021/06/03 06:32:00;;;;;;;0.50;0.50;;;;;;;21.78;46.43;99404.88;5153194;27;42479;-80
2021/06/03 06:34:27;;;;;;;1.07;0.53;;;;;;;21.83;46.79;99407.97;5145193;27;42371;-80
2021/06/03 06:36:56;;;;;;;0.40;0.40;;;;;;;21.86;45.88;99413.06;5135821;27;41347;-80
2021/06/03 06:39:23;;;;;;;1.47;1.37;;;;;;;22.07;45.71;99414.63;5134579;27;39493;-80
2021/06/03 06:41:50;;;;;;;0.60;0.60;;;;;;;21.99;44.86;99411.88;5118018;27;41709;-80
2021/06/03 06:44:18;;;;;;;0.33;0.33;;;;;;;21.91;45.51;99411.75;5136506;27;41909;-80
2021/06/03 06:46:45;;;;;;;0.47;0.47;;;;;;;21.75;46.62;99402.50;5135367;27;42101;-80
2021/06/03 06:49:12;;;;;;;0.50;0.50;;;;;;;21.73;47.11;99398.28;5134422;27;40893;-80
2021/06/03 06:51:39;;;;;;;0.27;0.27;;;;;;;21.60;47.19;99395.09;5135010;27;40760;-79
2021/06/03 06:54:08;;;;;;;1.07;0.90;;;;;;;21.77;47.58;99407.72;5144262;27;43143;-80
2021/06/03 06:56:35;;;;;;;0.90;0.90;;;;;;;22.07;47.04;99410.09;5151144;27;42229;-80
2021/06/03 06:59:02;;;;;;;0.80;0.80;;;;;;;22.28;46.14;99398.94;5152662;27;40211;-80
2021/06/03 07:01:30;;;;;;;0.67;0.67;;;;;;;22.75;45.54;99414.81;5135276;27;40780;-80
2021/06/03 07:03:57;;;;;;;0.57;0.57;;;;;;;23.12;45.22;99401.84;5127979;27;42179;-81
2021/06/03 07:06:24;;;;;;;0.73;0.73;;;;;;;23.75;43.14;99430.28;5134178;27;42007;-79
2021/06/03 07:08:51;;;;;;;0.50;0.50;;;;;;;24.12;42.44;99421.72;5152618;27;40559;-81
2021/06/03 07:11:20;;;;;;;0.70;0.70;;;;;;;24.22;40.50;99433.25;5134578;27;41781;-80
2021/06/03 07:13:47;;;;;;;0.60;0.60;;;;;;;24.19;41.43;99428.16;5149991;27;41757;-80
2021/06/03 07:16:14;;;;;;;0.70;0.70;;;;;;;24.27;41.41;99439.00;5134587;27;41159;-80
2021/06/03 07:18:41;;;;;;;0.30;0.30;;;;;;;24.25;40.88;99435.63;5151789;27;39909;-80
2021/06/03 07:21:08;;;;;;;0.50;0.50;;;;;;;24.42;40.26;99434.63;5151123;27;42457;-81
2021/06/03 07:23:35;;;;;;;0.93;0.93;;;;;;;24.70;40.86;99432.41;5124773;27;41634;-80
2021/06/03 07:26:02;;;;;;;0.80;0.80;;;;;;;25.28;40.54;99437.50;5117660;27;41886;-80
2021/06/03 07:28:32;;;;;;;0.73;0.73;;;;;;;26.45;38.32;99456.34;5118023;27;39165;-80
2021/06/03 07:31:00;;;;;;;0.83;0.83;;;;;;;27.99;36.08;99470.06;5118944;27;40902;-80
2021/06/03 07:33:27;;;;;;;0.90;0.90;;;;;;;29.22;32.12;99486.94;5151657;27;42858;-81
2021/06/03 07:35:54;;;;;;;3.10;1.43;;;;;;;30.13;31.24;99486.78;5152116;27;42269;-81
2021/06/03 07:38:23;;;;;;;0.50;0.50;;;;;;;30.59;31.46;99471.31;5150799;27;40897;-81
2021/06/03 07:40:50;;;;;;;1.43;0.50;;;;;;;30.97;30.43;99496.13;5117481;27;41577;-81
2021/06/03 07:43:18;;;;;;;0.40;0.40;;;;;;;31.15;30.58;99487.31;5134318;27;41587;-81
2021/06/03 07:45:47;;;;;;;1.03;1.03;;;;;;;31.70;29.32;99496.88;5117429;27;41916;-81
2021/06/03 07:48:14;;;;;;;0.67;0.67;;;;;;;32.69;28.13;99509.19;5151209;27;40416;-81
2021/06/03 07:50:41;;;;;;;0.90;0.90;;;;;;;33.88;26.83;99495.97;5133450;27;40664;-80
2021/06/03 07:53:09;;;;;;;0.50;0.47;;;;;;;35.19;25.22;99517.09;5151727;27;42855;-80
2021/06/03 07:55:37;;;;;;;0.80;0.80;;;;;;;36.25;24.30;99515.88;5150603;27;42299;-81
2021/06/03 07:58:06;;;;;;;0.83;0.83;;;;;;;36.73;23.52;99516.47;5152026;27;39785;-80
2021/06/03 08:00:35;;;;;;;0.60;0.60;;;;;;;36.76;23.13;99518.75;5128376;27;40784;-81
2021/06/03 08:03:05;;;;;;;2.27;0.90;;;;;;;35.95;23.69;99506.97;5134140;27;41748;-81
2021/06/03 08:05:33;;;;;;;0.70;0.70;;;;;;;35.12;22.93;99507.25;5133043;27;41579;-82
2021/06/03 08:08:00;;;;;;;1.13;1.10;;;;;;;34.83;24.21;99493.38;5151091;27;39912;-82
2021/06/03 08:10:31;;;;;;;0.50;0.50;;;;;;;35.48;24.08;99506.22;5117128;27;41417;-82
2021/06/03 08:12:59;;;;;;;0.70;0.70;;;;;;;36.79;23.18;99512.72;5133096;27;42866;-82
2021/06/03 08:15:28;;;;;;;1.03;1.03;;;;;;;37.91;21.93;99513.31;5149915;27;42432;-81
2021/06/03 08:17:55;;;;;;;1.00;1.00;;;;;;;38.93;20.33;99522.72;5132155;27;39459;-81
2021/06/03 08:20:29;;;;;;;0.75;0.75;;;;;;;39.60;19.46;99533.22;5134077;27;40986;-81
2021/06/03 08:22:57;;;;;;;0.80;0.80;;;;;;;39.45;19.36;99529.25;5151115;27;41860;-81
2021/06/03 08:25:24;;;;;;;1.20;1.20;;;;;;;39.07;19.49;99529.53;5151568;27;42061;-82
2021/06/03 08:27:52;;;;;;;0.70;0.70;;;;;;;37.96;20.65;99494.00;5133635;27;40664;-81
2021/06/03 08:30:20;;;;;;;1.10;1.00;;;;;;;37.26;22.30;99502.19;5132731;27;41355;-81
2021/06/03 08:32:50;;;;;;;0.90;0.90;;;;;;;36.77;22.90;99495.56;5132641;27;43400;-80
2021/06/03 08:35:20;;;;;;;1.07;0.87;;;;;;;36.97;23.01;99501.41;5132455;27;42167;-80
2021/06/03 08:37:51;;;;;;;0.80;0.70;;;;;;;36.91;22.98;99477.59;5150251;27;40531;-80
2021/06/03 08:40:20;;;;;;;0.63;0.63;;;;;;;37.25;21.66;99475.63;5150702;27;40930;-81
2021/06/03 08:42:50;;;;;;;1.00;1.00;;;;;;;37.95;21.29;99510.91;5150396;27;43514;-81
2021/06/03 08:45:18;;;;;;;0.60;0.60;;;;;;;38.78;21.55;99501.28;5151052;27;41778;-81
2021/06/03 08:47:46;;;;;;;0.50;0.50;;;;;;;39.93;20.37;99498.75;5149895;27;39699;-81
2021/06/03 08:50:13;;;;;;;0.80;0.80;;;;;;;41.38;18.47;99526.16;5131772;27;41989;-82
2021/06/03 08:52:40;;;;;;;0.82;0.82;;;;;;;42.41;16.90;99534.69;5132486;27;42784;-82
2021/06/03 08:56:14;;;;;;;0.68;0.68;;;;;;;42.64;17.00;99524.81;5141640;27;42165;-82
2021/06/03 08:58:02;;;;;;;0.77;0.77;;;;;;;42.96;17.87;99513.97;5149296;27;39918;-81
2021/06/03 09:00:30;;;;;;;0.70;0.70;;;;;;;43.05;16.91;99525.31;5150289;27;41444;-82
2021/06/03 09:02:57;;;;;;;0.90;0.90;;;;;;;43.13;16.82;99519.13;5129584;27;42724;-82
2021/06/03 09:05:25;;;;;;;0.88;0.88;;;;;;;42.81;16.98;99524.41;5111810;27;40995;-81
2021/06/03 09:07:52;;;;;;;6.93;1.70;;;;;;;42.54;17.45;99520.13;5130102;27;40462;-81
2021/06/03 09:10:32;;;;;;;0.80;0.80;;;;;;;42.23;17.24;99515.84;5087530;27;20278;-82
2021/06/03 09:13:11;;;;;;;0.90;0.90;;;;;;;42.60;17.23;99521.75;5130908;27;42267;-81
2021/06/03 09:15:43;;;;;;;0.70;0.70;;;;;;;43.26;17.21;99509.25;5150134;27;41893;-81
2021/06/03 09:18:11;;;;;;;0.70;0.70;;;;;;;43.75;15.64;99538.88;5148198;27;40557;-81
2021/06/03 09:20:41;;;;;;;0.50;0.50;;;;;;;43.89;15.64;99520.28;5150112;27;42412;-81
2021/06/03 09:23:25;;;;;;;0.60;0.60;;;;;;;44.45;15.50;99530.72;5148695;27;43262;-82
2021/06/03 09:25:54;;;;;;;0.70;0.70;;;;;;;44.88;15.57;99529.50;5151262;27;42272;-80
2021/06/03 09:28:26;;;;;;;0.70;0.70;;;;;;;45.53;15.25;99534.22;5132591;27;39134;-79
2021/06/03 09:31:00;;;;;;;0.80;0.80;;;;;;;46.05;14.79;99527.31;5132489;27;42214;-80
2021/06/03 09:34:03;;;;;;;0.70;0.70;;;;;;;46.81;15.24;99517.16;5147360;27;43311;-81
2021/06/03 09:36:38;;;;;;;0.75;0.75;;;;;;;47.07;13.93;99521.00;5132571;27;41399;-81
2021/06/03 09:39:14;;;;;;;0.70;0.70;;;;;;;46.62;14.68;99514.50;5132710;27;39183;-81
2021/06/03 09:41:45;;;;;;;0.75;0.75;;;;;;;45.39;15.04;99523.00;5138611;27;40537;-80
2021/06/03 09:44:19;;;;;;;0.70;0.70;;;;;;;43.85;16.04;99508.03;5115941;27;43795;-81
2021/06/03 09:46:48;;;;;;;0.95;0.95;;;;;;;43.75;16.55;99497.84;5132296;27;42201;-83
2021/06/03 09:49:18;;;;;;;0.75;0.75;;;;;;;44.68;16.05;99488.69;5094540;27;39853;-81
2021/06/03 09:51:47;;;;;;;0.80;0.80;;;;;;;45.08;15.00;99500.34;5110512;27;41410;-81
2021/06/03 09:54:20;;;;;;;0.80;0.80;;;;;;;46.01;15.16;99498.25;5079315;27;41713;-81
2021/06/03 09:56:55;;;;;;;0.70;0.70;;;;;;;46.07;15.17;99469.00;5139715;27;42376;-82
2021/06/03 09:59:30;;;;;;;0.70;0.70;;;;;;;46.03;15.17;99470.78;5117661;27;38946;-80
2021/06/03 10:02:01;;;;;;;0.70;0.70;;;;;;;45.20;15.83;99483.09;5119099;27;40791;-83
2021/06/03 10:04:44;;;;;;;0.85;0.85;;;;;;;43.76;16.05;99471.59;5152974;27;41909;-82
2021/06/03 10:07:17;;;;;;;0.80;0.80;;;;;;;42.73;17.87;99475.69;5135656;27;42404;-82
2021/06/03 10:09:50;;;;;;;0.70;0.70;;;;;;;41.79;18.61;99460.13;5154266;27;39844;-82
2021/06/03 10:12:38;;;;;;;1.00;1.00;;;;;;;40.86;19.88;99447.53;5141531;27;41848;-84
2021/06/03 10:15:12;;;;;;;0.97;0.97;;;;;;;40.18;19.17;99444.13;5117763;27;41655;-82
2021/06/03 10:17:48;;;;;;;0.90;0.90;;;;;;;40.27;18.94;99457.47;5153688;27;42791;-81
2021/06/03 10:20:18;;;;;;;0.60;0.60;;;;;;;40.21;18.66;99451.91;5152068;27;40026;-82
2021/06/03 10:22:47;;;;;;;1.02;1.02;;;;;;;39.81;19.30;99451.78;5136268;27;40489;-82
2021/06/03 10:25:15;;;;;;;0.70;0.70;;;;;;;39.07;20.88;99421.47;5152481;27;42518;-82
2021/06/03 10:27:46;;;;;;;1.17;1.00;;;;;;;38.65;21.60;99432.50;5127621;27;41281;-81
2021/06/03 10:30:17;;;;;;;0.77;0.77;;;;;;;38.07;20.67;99429.44;5135679;27;40294;-81
2021/06/03 10:32:45;;;;;;;0.70;0.70;;;;;;;37.97;21.11;99434.00;5135919;27;40959;-83
2021/06/03 10:35:15;;;;;;;0.57;0.57;;;;;;;37.91;19.17;99452.47;5153415;27;42449;-81
2021/06/03 10:37:44;;;;;;;0.57;0.57;;;;;;;37.93;20.38;99442.00;5153556;27;40964;-82
2021/06/03 10:40:14;;;;;;;0.55;0.55;;;;;;;38.14;21.35;99423.72;5135248;27;39818;-82
2021/06/03 10:42:45;;;;;;;0.60;0.60;;;;;;;38.09;20.98;99426.41;5128043;27;41600;-82
2021/06/03 10:45:14;;;;;;;0.67;0.67;;;;;;;37.96;19.44;99440.63;5118365;27;41802;-82
2021/06/03 10:47:42;;;;;;;0.50;0.50;;;;;;;37.85;19.47;99450.75;5118709;27;41100;-82
2021/06/03 10:50:13;;;;;;;0.50;0.43;;;;;;;37.78;21.02;99444.59;5153737;27;39621;-82
2021/06/03 10:52:41;;;;;;;1.60;0.80;;;;;;;37.62;20.57;99418.69;5153297;27;42272;-82
2021/06/03 10:55:09;;;;;;;0.60;0.60;;;;;;;37.54;20.39;99423.81;5154150;27;42620;-82
2021/06/03 10:57:53;;;;;;;0.60;0.60;;;;;;;37.49;19.02;99443.91;5152439;27;42104;-84
2021/06/03 11:00:32;;;;;;;0.70;0.70;;;;;;;37.36;19.78;99444.28;5135235;27;40887;-82
2021/06/03 11:03:02;;;;;;;0.90;0.90;;;;;;;37.40;20.67;99410.38;5134449;27;41898;-82
2021/06/03 11:05:32;;;;;;;0.77;0.77;;;;;;;37.69;20.38;99416.56;5152317;27;43390;-82
2021/06/03 11:08:24;;;;;;;0.70;0.70;;;;;;;38.00;20.22;99420.50;5118495;27;41005;-83
2021/06/03 11:10:52;;;;;;;0.50;0.50;;;;;;;37.97;20.63;99409.09;5134956;27;38964;-82
2021/06/03 11:13:22;;;;;;;0.67;0.67;;;;;;;37.86;20.13;99369.44;5118247;27;41949;-80
2021/06/03 11:16:20;;;;;;;0.77;0.77;;;;;;;38.19;20.07;99414.63;5118219;27;41709;-81
2021/06/03 11:19:14;;;;;;;0.60;0.60;;;;;;;38.19;20.81;99409.94;5048671;28;42132;-81
2021/06/03 11:22:05;;;;;;;0.70;0.70;;;;;;;38.12;20.70;99405.69;5117491;27;39145;-80
2021/06/03 11:24:53;;;;;;;0.70;0.60;;;;;;;38.31;20.19;99421.66;5153704;27;42409;-82
2021/06/03 11:27:35;;;;;;;0.60;0.60;;;;;;;38.33;21.87;99402.84;5151944;27;42738;-82
2021/06/03 11:30:10;;;;;;;3.13;0.90;;;;;;;38.26;20.46;99412.47;5152764;27;42974;-82
2021/06/03 11:32:42;;;;;;;0.90;0.90;;;;;;;37.82;20.76;99400.66;5135501;27;39368;-80
2021/06/03 11:35:13;;;;;;;0.80;0.80;;;;;;;37.46;20.90;99369.00;5151804;27;42964;-82
2021/06/03 11:37:46;;;;;;;0.70;0.70;;;;;;;37.70;21.37;99395.28;5135268;27;42676;-81
2021/06/03 11:40:17;;;;;;;0.60;0.60;;;;;;;37.98;22.44;99395.00;5135111;27;41089;-84
2021/06/03 11:42:46;;;;;;;0.50;0.50;;;;;;;38.43;22.83;99379.97;5153404;27;40016;-82
2021/06/03 11:45:22;;;;;;;0.97;0.80;;;;;;;39.13;21.91;99387.13;5122319;27;41777;-81
2021/06/03 11:48:19;;;;;;;0.63;0.63;;;;;;;40.49;20.16;99405.31;5118204;27;43071;-83
2021/06/03 11:51:05;;;;;;;0.70;0.70;;;;;;;41.49;18.93;99397.91;5151048;27;42938;-81